createdAt,value
2019-05-15T00:00:39.796Z,12.56
2019-05-15T00:01:45.358Z,12.54
2019-05-15T00:02:50.754Z,12.52
2019-05-15T00:03:58.457Z,12.51
2019-05-15T00:05:04.481Z,12.49
2019-05-15T00:06:10.248Z,12.50
2019-05-15T00:07:15.214Z,12.48
2019-05-15T00:08:20.762Z,12.48
2019-05-15T00:09:25.692Z,12.47
2019-05-15T00:10:31.255Z,12.47
2019-05-15T00:11:38.777Z,12.45
2019-05-15T00:12:43.870Z,12.42
2019-05-15T00:13:49.093Z,12.40
2019-05-15T00:14:54.660Z,12.37
2019-05-15T00:15:59.899Z,12.37
2019-05-15T00:17:05.442Z,12.35
2019-05-15T00:18:10.393Z,12.35
2019-05-15T00:19:18.603Z,12.33
2019-05-15T00:20:23.550Z,12.32
2019-05-15T00:21:29.444Z,12.31
2019-05-15T00:22:34.367Z,12.29
2019-05-15T00:23:42.052Z,12.29
2019-05-15T00:24:48.848Z,12.28
2019-05-15T00:25:54.210Z,12.28
2019-05-15T00:26:59.486Z,12.28
2019-05-15T00:28:05.139Z,12.28
2019-05-15T00:29:15.846Z,12.27
2019-05-15T00:30:18.369Z,12.27
2019-05-15T00:31:23.393Z,12.26
2019-05-15T00:32:29.475Z,12.24
2019-05-15T00:33:34.745Z,12.22
2019-05-15T00:34:40.233Z,12.20
2019-05-15T00:35:45.294Z,12.18
2019-05-15T00:36:50.773Z,12.17
2019-05-15T00:37:55.738Z,12.17
2019-05-15T00:39:01.209Z,12.15
2019-05-15T00:40:08.831Z,12.16
2019-05-15T00:41:14.232Z,12.15
2019-05-15T00:42:19.572Z,12.15
2019-05-15T00:43:25.126Z,12.15
2019-05-15T00:44:30.046Z,12.16
2019-05-15T00:45:38.295Z,12.16
2019-05-15T00:46:42.563Z,12.16
2019-05-15T00:47:48.653Z,12.16
2019-05-15T00:48:54.242Z,12.15
2019-05-15T00:50:00.031Z,12.16
2019-05-15T00:51:05.339Z,12.15
2019-05-15T00:52:12.241Z,12.15
2019-05-15T00:53:19.564Z,12.16
2019-05-15T00:54:25.600Z,12.16
2019-05-15T00:55:30.907Z,12.16
2019-05-15T00:56:36.412Z,12.15
2019-05-15T00:57:41.354Z,12.15
2019-05-15T00:58:48.814Z,12.12
2019-05-15T00:59:54.067Z,12.10
2019-05-15T01:00:59.612Z,12.08
2019-05-15T01:02:04.579Z,12.06
2019-05-15T01:03:10.184Z,12.04
2019-05-15T01:04:15.393Z,12.02
2019-05-15T01:05:20.962Z,11.99
2019-05-15T01:06:28.301Z,11.96
2019-05-15T01:07:33.557Z,11.96
2019-05-15T01:08:39.442Z,11.93
2019-05-15T01:09:45.262Z,11.93
2019-05-15T01:10:50.821Z,11.91
2019-05-15T01:11:58.585Z,11.89
2019-05-15T01:13:03.501Z,11.89
2019-05-15T01:14:12.227Z,11.88
2019-05-15T01:15:18.308Z,11.88
2019-05-15T01:16:23.341Z,11.88
2019-05-15T01:17:29.069Z,11.88
2019-05-15T01:18:34.604Z,11.87
2019-05-15T01:19:39.628Z,11.88
2019-05-15T01:20:45.359Z,11.88
2019-05-15T01:21:50.291Z,11.88
2019-05-15T01:22:55.827Z,11.89
2019-05-15T01:24:00.792Z,11.87
2019-05-15T01:25:08.707Z,11.87
2019-05-15T01:26:13.432Z,11.84
2019-05-15T01:27:19.042Z,11.82
2019-05-15T01:28:24.225Z,11.80
2019-05-15T01:29:41.151Z,11.78
2019-05-15T01:30:39.031Z,11.75
2019-05-15T01:31:44.132Z,11.73
2019-05-15T01:32:49.123Z,11.72
2019-05-15T01:33:54.626Z,11.70
2019-05-15T01:35:00.448Z,11.69
2019-05-15T01:36:08.351Z,11.68
2019-05-15T01:37:12.707Z,11.69
2019-05-15T01:38:18.675Z,11.66
2019-05-15T01:39:23.912Z,11.67
2019-05-15T01:40:29.831Z,11.66
2019-05-15T01:41:35.022Z,11.65
2019-05-15T01:42:40.630Z,11.65
2019-05-15T01:43:45.980Z,11.66
2019-05-15T01:44:51.480Z,11.65
2019-05-15T01:45:58.806Z,11.64
2019-05-15T01:47:04.026Z,11.63
2019-05-15T01:48:12.889Z,11.64
2019-05-15T01:49:18.790Z,11.63
2019-05-15T01:50:23.818Z,11.62
2019-05-15T01:51:29.396Z,11.61
2019-05-15T01:52:34.311Z,11.59
2019-05-15T01:53:39.786Z,11.57
2019-05-15T01:54:44.707Z,11.56
2019-05-15T01:55:50.315Z,11.54
2019-05-15T01:56:55.221Z,11.53
2019-05-15T01:58:01.007Z,11.51
2019-05-15T01:59:06.004Z,11.52
2019-05-15T02:00:11.620Z,11.51
2019-05-15T02:01:19.123Z,11.49
2019-05-15T02:02:24.033Z,11.50
2019-05-15T02:03:29.514Z,11.48
2019-05-15T02:04:35.100Z,11.50
2019-05-15T02:05:40.482Z,11.48
2019-05-15T02:06:48.281Z,11.49
2019-05-15T02:07:52.899Z,11.47
2019-05-15T02:08:58.801Z,11.47
2019-05-15T02:10:04.495Z,11.46
2019-05-15T02:11:09.990Z,11.47
2019-05-15T02:12:15.251Z,11.45
2019-05-15T02:13:20.885Z,11.44
2019-05-15T02:14:28.315Z,11.44
2019-05-15T02:15:33.561Z,11.44
2019-05-15T02:16:39.288Z,11.44
2019-05-15T02:17:45.352Z,11.43
2019-05-15T02:18:50.252Z,11.43
2019-05-15T02:19:56.113Z,11.43
2019-05-15T02:21:02.823Z,11.42
2019-05-15T02:22:08.469Z,11.41
2019-05-15T02:23:13.599Z,11.40
2019-05-15T02:24:19.268Z,11.39
2019-05-15T02:25:24.481Z,11.38
2019-05-15T02:26:30.062Z,11.36
2019-05-15T02:27:35.015Z,11.35
2019-05-15T02:28:40.648Z,11.34
2019-05-15T02:29:45.961Z,11.34
2019-05-15T02:30:51.520Z,11.33
2019-05-15T02:31:59.304Z,11.32
2019-05-15T02:33:03.626Z,11.30
2019-05-15T02:34:10.206Z,11.29
2019-05-15T02:35:18.406Z,11.27
2019-05-15T02:36:22.503Z,11.25
2019-05-15T02:37:29.372Z,11.23
2019-05-15T02:38:35.098Z,11.21
2019-05-15T02:39:40.602Z,11.19
2019-05-15T02:40:45.607Z,11.19
2019-05-15T02:41:51.173Z,11.17
2019-05-15T02:42:58.968Z,11.17
2019-05-15T02:44:03.619Z,11.16
2019-05-15T02:45:10.303Z,11.16
2019-05-15T02:46:19.373Z,11.14
2019-05-15T02:47:23.585Z,11.13
2019-05-15T02:48:29.301Z,11.11
2019-05-15T02:49:34.672Z,11.10
2019-05-15T02:50:40.254Z,11.09
2019-05-15T02:51:45.192Z,11.08
2019-05-15T02:52:50.812Z,11.06
2019-05-15T02:53:58.382Z,11.05
2019-05-15T02:55:03.056Z,11.05
2019-05-15T02:56:09.315Z,11.05
2019-05-15T02:57:15.466Z,11.04
2019-05-15T02:58:21.781Z,11.02
2019-05-15T02:59:29.042Z,11.01
2019-05-15T03:00:43.955Z,10.97
2019-05-15T03:01:41.456Z,10.96
2019-05-15T03:02:49.665Z,10.94
2019-05-15T03:03:54.282Z,10.93
2019-05-15T03:04:59.714Z,10.91
2019-05-15T03:06:05.321Z,10.91
2019-05-15T03:07:10.537Z,10.90
2019-05-15T03:08:19.316Z,10.88
2019-05-15T03:09:22.948Z,10.87
2019-05-15T03:10:29.679Z,10.88
2019-05-15T03:11:34.864Z,10.88
2019-05-15T03:12:42.453Z,10.86
2019-05-15T03:13:50.283Z,10.83
2019-05-15T03:14:54.849Z,10.82
2019-05-15T03:16:20.413Z,10.82
2019-05-15T03:17:25.826Z,10.80
2019-05-15T03:18:31.567Z,10.78
2019-05-15T03:19:39.292Z,10.76
2019-05-15T03:20:43.761Z,10.76
2019-05-15T03:21:49.922Z,10.75
2019-05-15T03:22:55.631Z,10.74
2019-05-15T03:24:00.681Z,10.75
2019-05-15T03:25:10.336Z,10.74
2019-05-15T03:26:13.592Z,10.71
2019-05-15T03:27:19.813Z,10.70
2019-05-15T03:28:24.895Z,10.69
2019-05-15T03:29:30.820Z,10.68
2019-05-15T03:31:06.657Z,10.67
2019-05-15T03:31:59.103Z,10.65
2019-05-15T03:33:00.565Z,10.64
2019-05-15T03:34:03.053Z,10.63
2019-05-15T03:35:05.954Z,10.62
2019-05-15T03:36:13.867Z,10.60
2019-05-15T03:37:22.219Z,10.60
2019-05-15T03:38:29.704Z,10.59
2019-05-15T03:39:33.675Z,10.58
2019-05-15T03:40:39.941Z,10.58
2019-05-15T03:41:45.299Z,10.57
2019-05-15T03:42:51.369Z,10.55
2019-05-15T03:43:59.488Z,10.56
2019-05-15T03:45:03.658Z,10.55
2019-05-15T03:46:09.264Z,10.56
2019-05-15T03:47:15.796Z,10.55
2019-05-15T03:48:20.869Z,10.55
2019-05-15T03:49:29.203Z,10.54
2019-05-15T03:50:33.142Z,10.54
2019-05-15T03:51:42.479Z,10.53
2019-05-15T03:52:45.714Z,10.53
2019-05-15T03:53:51.665Z,10.52
2019-05-15T03:54:58.828Z,10.51
2019-05-15T03:56:03.942Z,10.51
2019-05-15T03:57:09.925Z,10.51
2019-05-15T03:58:20.915Z,10.50
2019-05-15T03:59:23.664Z,10.49
2019-05-15T04:00:30.183Z,10.50
2019-05-15T04:01:39.802Z,10.50
2019-05-15T04:02:42.798Z,10.49
2019-05-15T04:03:49.591Z,10.49
2019-05-15T04:04:58.059Z,10.49
2019-05-15T04:06:02.698Z,10.47
2019-05-15T04:07:09.267Z,10.46
2019-05-15T04:08:14.859Z,10.45
2019-05-15T04:09:20.609Z,10.45
2019-05-15T04:10:28.612Z,10.44
2019-05-15T04:11:33.255Z,10.44
2019-05-15T04:12:40.301Z,10.44
2019-05-15T04:13:45.693Z,10.43
2019-05-15T04:14:50.777Z,10.44
2019-05-15T04:15:59.142Z,10.44
2019-05-15T04:17:03.173Z,10.46
2019-05-15T04:18:09.340Z,10.46
2019-05-15T04:19:18.844Z,10.46
2019-05-15T04:20:23.147Z,10.48
2019-05-15T04:21:30.320Z,10.48
2019-05-15T04:22:35.804Z,10.47
2019-05-15T04:23:41.671Z,10.48
2019-05-15T04:24:49.534Z,10.49
2019-05-15T04:25:54.845Z,10.51
2019-05-15T04:27:06.104Z,10.51
2019-05-15T04:28:11.641Z,10.53
2019-05-15T04:29:19.382Z,10.52
2019-05-15T04:30:24.567Z,10.53
2019-05-15T04:31:49.800Z,10.54
2019-05-15T04:32:39.831Z,10.55
2019-05-15T04:33:44.439Z,10.56
2019-05-15T04:34:49.523Z,10.56
2019-05-15T04:35:55.019Z,10.57
2019-05-15T04:37:00.328Z,10.58
2019-05-15T04:38:09.065Z,10.59
2019-05-15T04:39:12.994Z,10.59
2019-05-15T04:40:19.439Z,10.58
2019-05-15T04:41:24.911Z,10.60
2019-05-15T04:42:30.765Z,10.60
2019-05-15T04:43:44.139Z,10.60
2019-05-15T04:44:42.941Z,10.61
2019-05-15T04:45:49.784Z,10.61
2019-05-15T04:46:55.099Z,10.62
2019-05-15T04:48:00.099Z,10.61
2019-05-15T04:49:09.021Z,10.63
2019-05-15T04:50:12.719Z,10.64
2019-05-15T04:51:19.092Z,10.65
2019-05-15T04:52:24.257Z,10.66
2019-05-15T04:53:33.163Z,10.67
2019-05-15T04:54:39.925Z,10.69
2019-05-15T04:55:44.335Z,10.70
2019-05-15T04:56:50.357Z,10.72
2019-05-15T04:57:58.992Z,10.73
2019-05-15T04:59:02.641Z,10.75
2019-05-15T05:00:09.831Z,10.74
2019-05-15T05:01:19.701Z,10.77
2019-05-15T05:02:27.064Z,10.78
2019-05-15T05:03:34.145Z,10.80
2019-05-15T05:04:38.830Z,10.81
2019-05-15T05:05:44.210Z,10.83
2019-05-15T05:06:49.742Z,10.85
2019-05-15T05:07:54.990Z,10.86
2019-05-15T05:09:00.909Z,10.89
2019-05-15T05:10:09.663Z,10.89
2019-05-15T05:11:14.121Z,10.92
2019-05-15T05:12:19.485Z,10.94
2019-05-15T05:13:28.403Z,10.95
2019-05-15T05:14:33.383Z,10.96
2019-05-15T05:16:39.548Z,11.06
2019-05-15T05:17:45.413Z,11.05
2019-05-15T05:18:50.672Z,11.09
2019-05-15T05:19:58.361Z,11.17
2019-05-15T05:21:03.625Z,11.27
2019-05-15T05:22:09.561Z,11.37
2019-05-15T05:23:14.634Z,11.47
2019-05-15T05:24:20.354Z,11.60
2019-05-15T05:25:27.842Z,11.70
2019-05-15T05:26:32.667Z,11.82
2019-05-15T05:27:38.548Z,11.93
2019-05-15T05:28:44.446Z,12.05
2019-05-15T05:29:50.095Z,12.16
2019-05-15T05:30:58.569Z,12.25
2019-05-15T05:32:02.818Z,12.36
2019-05-15T05:33:08.635Z,12.47
2019-05-15T05:34:14.069Z,12.59
2019-05-15T05:35:19.843Z,12.69
2019-05-15T05:36:25.195Z,12.81
2019-05-15T05:37:31.126Z,12.89
2019-05-15T05:38:38.471Z,13.00
2019-05-15T05:39:43.564Z,13.10
2019-05-15T05:40:49.891Z,13.18
2019-05-15T05:41:55.713Z,13.27
2019-05-15T05:43:00.722Z,13.37
2019-05-15T05:44:08.166Z,13.44
2019-05-15T05:45:13.625Z,13.52
2019-05-15T05:46:19.458Z,13.60
2019-05-15T05:47:24.391Z,13.64
2019-05-15T05:48:30.180Z,13.70
2019-05-15T05:49:35.205Z,13.77
2019-05-15T05:50:44.820Z,13.84
2019-05-15T05:51:49.862Z,13.89
2019-05-15T05:52:57.832Z,13.97
2019-05-15T05:54:02.503Z,14.02
2019-05-15T05:55:09.131Z,14.09
2019-05-15T05:56:14.230Z,14.17
2019-05-15T05:57:19.979Z,14.25
2019-05-15T05:58:25.326Z,14.31
2019-05-15T05:59:30.888Z,14.38
2019-05-15T06:00:41.824Z,14.44
2019-05-15T06:01:48.388Z,14.51
2019-05-15T06:02:53.619Z,14.59
2019-05-15T06:03:59.418Z,14.65
2019-05-15T06:05:04.495Z,14.72
2019-05-15T06:06:10.130Z,14.79
2019-05-15T06:07:15.104Z,14.86
2019-05-15T06:08:20.726Z,14.93
2019-05-15T06:09:27.832Z,14.97
2019-05-15T06:10:33.798Z,15.03
2019-05-15T06:11:38.887Z,15.09
2019-05-15T06:12:44.400Z,15.12
2019-05-15T06:13:52.509Z,15.19
2019-05-15T06:14:58.086Z,15.22
2019-05-15T06:16:03.212Z,15.27
2019-05-15T06:17:08.684Z,15.32
2019-05-15T06:18:13.759Z,15.35
2019-05-15T06:19:19.384Z,15.40
2019-05-15T06:20:24.394Z,15.42
2019-05-15T06:21:29.850Z,15.44
2019-05-15T06:22:35.114Z,15.44
2019-05-15T06:23:45.616Z,15.45
2019-05-15T06:24:48.491Z,15.46
2019-05-15T06:25:54.312Z,15.45
2019-05-15T06:26:59.371Z,15.45
2019-05-15T06:28:05.000Z,15.44
2019-05-15T06:29:10.318Z,15.44
2019-05-15T06:30:21.896Z,15.42
2019-05-15T06:31:22.891Z,15.45
2019-05-15T06:32:29.091Z,15.47
2019-05-15T06:33:34.041Z,15.49
2019-05-15T06:34:39.882Z,15.50
2019-05-15T06:35:45.069Z,15.47
2019-05-15T06:36:50.747Z,15.49
2019-05-15T06:37:55.914Z,15.49
2019-05-15T06:39:01.739Z,15.49
2019-05-15T06:40:08.456Z,15.51
2019-05-15T06:41:14.652Z,15.51
2019-05-15T06:42:19.579Z,15.53
2019-05-15T06:43:25.191Z,15.54
2019-05-15T06:44:30.212Z,15.57
2019-05-15T06:45:37.881Z,15.57
2019-05-15T06:46:42.444Z,15.57
2019-05-15T06:47:48.380Z,15.54
2019-05-15T06:48:53.751Z,15.51
2019-05-15T06:49:59.326Z,15.51
2019-05-15T06:51:04.470Z,15.50
2019-05-15T06:52:10.378Z,15.47
2019-05-15T06:53:15.285Z,15.47
2019-05-15T06:54:20.784Z,15.45
2019-05-15T06:55:25.760Z,15.45
2019-05-15T06:56:31.379Z,15.42
2019-05-15T06:57:36.468Z,15.38
2019-05-15T06:58:42.369Z,15.35
2019-05-15T06:59:48.406Z,15.32
2019-05-15T07:00:54.417Z,15.28
2019-05-15T07:01:59.563Z,15.26
2019-05-15T07:03:20.016Z,15.23
2019-05-15T07:04:12.024Z,15.21
2019-05-15T07:05:18.455Z,15.17
2019-05-15T07:06:23.870Z,15.10
2019-05-15T07:07:29.423Z,15.06
2019-05-15T07:08:34.880Z,15.00
2019-05-15T07:09:40.373Z,14.95
2019-05-15T07:10:45.574Z,14.90
2019-05-15T07:11:51.179Z,14.88
2019-05-15T07:12:58.371Z,14.85
2019-05-15T07:18:32.907Z,14.60
2019-05-15T07:19:39.367Z,14.49
2019-05-15T07:20:48.605Z,14.46
2019-05-15T07:21:53.310Z,14.44
2019-05-15T07:22:58.734Z,14.44
2019-05-15T07:24:04.737Z,14.44
2019-05-15T07:25:10.444Z,14.43
2019-05-15T07:26:18.159Z,14.43
2019-05-15T07:27:22.687Z,14.44
2019-05-15T07:28:29.638Z,14.43
2019-05-15T07:29:38.408Z,14.44
2019-05-15T07:30:43.694Z,14.43
2019-05-15T07:31:48.667Z,14.42
2019-05-15T07:32:54.197Z,14.40
2019-05-15T07:34:00.002Z,14.37
2019-05-15T07:35:08.461Z,14.35
2019-05-15T07:36:13.584Z,14.34
2019-05-15T07:37:19.226Z,14.34
2019-05-15T07:38:24.093Z,14.35
2019-05-15T07:39:29.761Z,14.35
2019-05-15T07:40:34.643Z,14.35
2019-05-15T07:41:40.635Z,14.35
2019-05-15T07:42:48.784Z,14.35
2019-05-15T07:43:53.201Z,14.34
2019-05-15T07:44:59.559Z,14.32
2019-05-15T07:46:08.099Z,14.30
2019-05-15T07:47:11.957Z,14.30
2019-05-15T07:48:18.878Z,14.28
2019-05-15T07:49:24.053Z,14.26
2019-05-15T07:50:30.019Z,14.25
2019-05-15T07:51:34.946Z,14.24
2019-05-15T07:52:41.252Z,14.23
2019-05-15T07:53:48.727Z,14.23
2019-05-15T07:54:55.267Z,14.22
2019-05-15T07:56:01.629Z,14.23
2019-05-15T07:57:08.943Z,14.24
2019-05-15T07:58:14.141Z,14.25
2019-05-15T07:59:19.687Z,14.28
2019-05-15T08:00:25.351Z,14.29
2019-05-15T08:01:30.918Z,14.31
2019-05-15T08:02:37.909Z,14.32
2019-05-15T08:03:56.556Z,14.33
2019-05-15T08:04:49.857Z,14.35
2019-05-15T08:06:02.690Z,14.37
2019-05-15T08:07:03.990Z,14.37
2019-05-15T08:08:09.694Z,14.37
2019-05-15T08:09:14.752Z,14.36
2019-05-15T08:10:22.280Z,14.34
2019-05-15T08:11:28.498Z,14.33
2019-05-15T08:12:34.246Z,14.32
2019-05-15T08:13:39.715Z,14.30
2019-05-15T08:14:47.435Z,14.29
2019-05-15T08:15:53.275Z,14.27
2019-05-15T08:16:59.374Z,14.26
2019-05-15T08:18:09.099Z,14.24
2019-05-15T08:19:11.843Z,14.24
2019-05-15T08:20:18.358Z,14.24
2019-05-15T08:21:24.003Z,14.25
2019-05-15T08:22:29.390Z,14.25
2019-05-15T08:23:34.930Z,14.24
2019-05-15T08:24:39.818Z,14.24
2019-05-15T08:25:48.522Z,14.25
2019-05-15T08:26:53.625Z,14.26
2019-05-15T08:27:59.552Z,14.27
2019-05-15T08:29:04.652Z,14.26
2019-05-15T08:30:12.179Z,14.26
2019-05-15T08:31:18.793Z,14.23
2019-05-15T08:32:24.443Z,14.23
2019-05-15T08:33:29.513Z,14.23
2019-05-15T08:34:34.970Z,14.23
2019-05-15T08:35:44.451Z,14.22
2019-05-15T08:36:48.240Z,14.22
2019-05-15T08:37:53.423Z,14.22
2019-05-15T08:38:59.202Z,14.24
2019-05-15T08:40:04.868Z,14.24
2019-05-15T08:41:11.530Z,14.24
2019-05-15T08:42:18.899Z,14.25
2019-05-15T08:43:24.036Z,14.28
2019-05-15T08:44:29.585Z,14.30
2019-05-15T08:45:35.298Z,14.31
2019-05-15T08:46:40.695Z,14.32
2019-05-15T08:47:48.966Z,14.34
2019-05-15T08:48:52.905Z,14.34
2019-05-15T08:49:58.512Z,14.35
2019-05-15T08:51:03.447Z,14.37
2019-05-15T08:52:10.333Z,14.38
2019-05-15T08:53:15.516Z,14.40
2019-05-15T08:54:21.193Z,14.43
2019-05-15T08:55:28.052Z,14.45
2019-05-15T08:56:33.351Z,14.46
2019-05-15T08:57:38.564Z,14.48
2019-05-15T08:58:44.344Z,14.49
2019-05-15T08:59:49.263Z,14.50
2019-05-15T09:00:54.774Z,14.50
2019-05-15T09:01:59.768Z,14.52
2019-05-15T09:03:05.533Z,14.52
2019-05-15T09:04:10.471Z,14.53
2019-05-15T09:05:18.646Z,14.54
2019-05-15T09:06:24.256Z,14.55
2019-05-15T09:07:30.187Z,14.56
2019-05-15T09:08:35.215Z,14.55
2019-05-15T09:09:40.782Z,14.54
2019-05-15T09:10:46.302Z,14.53
2019-05-15T09:11:51.853Z,14.51
2019-05-15T09:12:58.686Z,14.50
2019-05-15T09:14:04.279Z,14.50
2019-05-15T09:15:10.388Z,14.49
2019-05-15T09:16:18.353Z,14.49
2019-05-15T09:17:22.538Z,14.49
2019-05-15T09:18:28.438Z,14.50
2019-05-15T09:19:33.638Z,14.51
2019-05-15T09:20:39.713Z,14.52
2019-05-15T09:21:44.958Z,14.56
2019-05-15T09:22:50.830Z,14.57
2019-05-15T09:23:58.694Z,14.60
2019-05-15T09:25:03.640Z,14.62
2019-05-15T09:26:09.399Z,14.66
2019-05-15T09:27:15.315Z,14.69
2019-05-15T09:28:20.245Z,14.71
2019-05-15T09:29:25.733Z,14.72
2019-05-15T09:30:30.739Z,14.73
2019-05-15T09:31:36.229Z,14.74
2019-05-15T09:32:41.220Z,14.75
2019-05-15T09:33:49.324Z,14.74
2019-05-15T09:34:55.554Z,14.73
2019-05-15T09:36:01.363Z,14.74
2019-05-15T09:37:08.443Z,14.76
2019-05-15T09:38:13.909Z,14.77
2019-05-15T09:39:19.528Z,14.79
2019-05-15T09:40:41.737Z,14.80
2019-05-15T09:41:31.817Z,14.81
2019-05-15T09:42:38.866Z,14.82
2019-05-15T09:43:44.206Z,14.83
2019-05-15T09:44:50.026Z,14.82
2019-05-15T09:45:55.034Z,14.81
2019-05-15T09:47:00.937Z,14.81
2019-05-15T09:48:09.494Z,14.82
2019-05-15T09:49:13.272Z,14.83
2019-05-15T09:50:19.522Z,14.84
2019-05-15T09:51:25.069Z,14.86
2019-05-15T09:52:30.288Z,14.89
2019-05-15T09:53:39.084Z,14.88
2019-05-15T09:54:43.417Z,14.89
2019-05-15T09:55:49.790Z,14.89
2019-05-15T09:56:55.546Z,14.90
2019-05-15T09:58:01.309Z,14.91
2019-05-15T09:59:08.851Z,14.92
2019-05-15T10:00:14.823Z,14.92
2019-05-15T10:01:20.007Z,14.94
2019-05-15T10:02:28.248Z,14.95
2019-05-15T10:03:32.309Z,14.97
2019-05-15T10:04:39.038Z,14.97
2019-05-15T10:05:44.996Z,14.97
2019-05-15T10:06:50.711Z,14.98
2019-05-15T10:07:55.619Z,15.00
2019-05-15T10:09:01.118Z,15.02
2019-05-15T10:10:08.733Z,15.06
2019-05-15T10:11:14.155Z,15.08
2019-05-15T10:12:19.136Z,15.11
2019-05-15T10:13:24.594Z,15.12
2019-05-15T10:14:29.972Z,15.14
2019-05-15T10:15:35.512Z,15.15
2019-05-15T10:16:41.161Z,15.14
2019-05-15T10:17:50.899Z,15.16
2019-05-15T10:18:53.963Z,15.18
2019-05-15T10:19:59.414Z,15.18
2019-05-15T10:21:04.481Z,15.20
2019-05-15T10:22:10.107Z,15.23
2019-05-15T10:23:19.164Z,15.25
2019-05-15T10:24:23.198Z,15.26
2019-05-15T10:25:28.247Z,15.29
2019-05-15T10:26:33.812Z,15.31
2019-05-15T10:27:39.789Z,15.32
2019-05-15T10:28:45.529Z,15.33
2019-05-15T10:29:50.779Z,15.31
2019-05-15T10:30:56.306Z,15.32
2019-05-15T10:32:01.643Z,15.32
2019-05-15T10:33:08.737Z,15.32
2019-05-15T10:34:13.763Z,15.29
2019-05-15T10:35:28.283Z,15.31
2019-05-15T10:36:28.028Z,15.29
2019-05-15T10:37:34.065Z,15.29
2019-05-15T10:38:39.377Z,15.30
2019-05-15T10:39:45.199Z,15.30
2019-05-15T10:41:03.703Z,15.31
2019-05-15T10:41:57.785Z,15.30
2019-05-15T10:43:02.872Z,15.31
2019-05-15T10:44:09.320Z,15.31
2019-05-15T10:45:15.042Z,15.32
2019-05-15T10:46:20.889Z,15.33
2019-05-15T10:47:25.827Z,15.33
2019-05-15T10:48:31.830Z,15.34
2019-05-15T10:49:39.012Z,15.33
2019-05-15T10:50:44.421Z,15.35
2019-05-15T10:51:49.786Z,15.38
2019-05-15T10:52:55.399Z,15.36
2019-05-15T10:54:00.875Z,15.35
2019-05-15T10:55:09.242Z,15.36
2019-05-15T10:56:14.109Z,15.40
2019-05-15T10:57:22.883Z,15.42
2019-05-15T10:58:28.571Z,15.43
2019-05-15T10:59:34.336Z,15.45
2019-05-15T11:00:39.401Z,15.46
2019-05-15T11:01:44.945Z,15.48
2019-05-15T11:02:50.199Z,15.50
2019-05-15T11:03:55.667Z,15.53
2019-05-15T11:05:00.768Z,15.53
2019-05-15T11:06:08.870Z,15.56
2019-05-15T11:07:13.025Z,15.59
2019-05-15T11:08:19.109Z,15.63
2019-05-15T11:09:24.180Z,15.64
2019-05-15T11:10:29.907Z,15.67
2019-05-15T11:11:35.089Z,15.70
2019-05-15T11:12:40.818Z,15.72
2019-05-15T11:13:45.734Z,15.73
2019-05-15T11:14:51.835Z,15.74
2019-05-15T11:15:57.151Z,15.73
2019-05-15T11:17:02.717Z,15.72
2019-05-15T11:18:09.252Z,15.71
2019-05-15T11:19:15.278Z,15.72
2019-05-15T11:20:20.525Z,15.72
2019-05-15T11:21:26.170Z,15.73
2019-05-15T11:22:31.310Z,15.74
2019-05-15T11:23:39.536Z,15.76
2019-05-15T11:24:43.582Z,15.75
2019-05-15T11:25:49.467Z,15.74
2019-05-15T11:26:56.241Z,15.76
2019-05-15T11:28:02.012Z,15.77
2019-05-15T11:29:09.604Z,15.80
2019-05-15T11:30:14.925Z,15.82
2019-05-15T11:31:20.380Z,15.83
2019-05-15T11:32:25.978Z,15.83
2019-05-15T11:33:30.915Z,15.83
2019-05-15T11:34:38.287Z,15.83
2019-05-15T11:35:56.801Z,15.84
2019-05-15T11:36:50.622Z,15.84
2019-05-15T11:37:57.318Z,15.84
2019-05-15T11:39:02.739Z,15.83
2019-05-15T11:40:10.032Z,15.81
2019-05-15T11:41:18.424Z,15.82
2019-05-15T11:42:22.133Z,15.82
2019-05-15T11:43:29.155Z,15.83
2019-05-15T11:44:34.896Z,15.85
2019-05-15T11:45:40.531Z,15.87
2019-05-15T11:46:45.835Z,15.90
2019-05-15T11:47:51.818Z,15.94
2019-05-15T11:48:58.805Z,15.98
2019-05-15T11:50:04.268Z,15.99
2019-05-15T11:51:09.932Z,16.02
2019-05-15T11:52:18.602Z,16.03
2019-05-15T11:53:22.463Z,16.03
2019-05-15T11:54:28.420Z,16.05
2019-05-15T11:55:34.070Z,16.06
2019-05-15T11:56:39.539Z,16.06
2019-05-15T11:57:47.516Z,16.06
2019-05-15T11:58:51.764Z,16.07
2019-05-15T11:59:59.613Z,16.09
2019-05-15T12:01:04.087Z,16.11
2019-05-15T12:02:09.008Z,16.12
2019-05-15T12:03:14.743Z,16.15
2019-05-15T12:04:30.435Z,16.17
2019-05-15T12:05:28.797Z,16.20
2019-05-15T12:06:34.111Z,16.21
2019-05-15T12:07:39.725Z,16.21
2019-05-15T12:08:44.791Z,16.21
2019-05-15T12:09:50.479Z,16.22
2019-05-15T12:10:58.834Z,16.24
2019-05-15T12:12:02.977Z,16.24
2019-05-15T12:13:09.793Z,16.24
2019-05-15T12:14:18.613Z,16.26
2019-05-15T12:15:22.396Z,16.27
2019-05-15T12:16:28.979Z,16.29
2019-05-15T12:17:34.353Z,16.29
2019-05-15T12:18:39.961Z,16.32
2019-05-15T12:19:54.936Z,16.34
2019-05-15T12:20:52.140Z,16.34
2019-05-15T12:21:59.781Z,16.31
2019-05-15T12:23:04.646Z,16.32
2019-05-15T12:24:09.678Z,16.33
2019-05-15T12:25:15.596Z,16.35
2019-05-15T12:26:20.790Z,16.38
2019-05-15T12:27:28.272Z,16.39
2019-05-15T12:28:33.617Z,16.42
2019-05-15T12:29:39.985Z,16.42
2019-05-15T12:30:45.236Z,16.42
2019-05-15T12:31:50.946Z,16.42
2019-05-15T12:32:55.875Z,16.43
2019-05-15T12:34:01.411Z,16.44
2019-05-15T12:35:06.722Z,16.43
2019-05-15T12:36:12.336Z,16.41
2019-05-15T12:37:19.035Z,16.40
2019-05-15T12:38:24.507Z,16.40
2019-05-15T12:39:30.563Z,16.42
2019-05-15T13:00:42.922Z,16.74
2019-05-15T13:01:47.938Z,16.74
2019-05-15T13:02:53.453Z,16.75
2019-05-15T13:03:58.391Z,16.77
2019-05-15T13:05:03.973Z,16.77
2019-05-15T13:06:08.953Z,16.79
2019-05-15T13:07:16.862Z,16.80
2019-05-15T13:08:21.690Z,16.82
2019-05-15T13:09:27.768Z,16.83
2019-05-15T13:10:32.835Z,16.85
2019-05-15T13:11:38.450Z,16.87
2019-05-15T13:12:59.148Z,16.89
2019-05-15T13:13:50.632Z,16.91
2019-05-15T13:14:59.081Z,16.91
2019-05-15T13:16:04.942Z,16.90
2019-05-15T13:17:10.084Z,16.90
2019-05-15T13:18:17.858Z,16.90
2019-05-15T13:19:22.655Z,16.89
2019-05-15T13:20:28.890Z,16.90
2019-05-15T13:21:34.340Z,16.91
2019-05-15T13:22:39.811Z,16.91
2019-05-15T13:23:44.970Z,16.91
2019-05-15T13:24:50.560Z,16.91
2019-05-15T13:25:55.817Z,16.92
2019-05-15T13:27:01.279Z,16.91
2019-05-15T13:28:08.582Z,16.90
2019-05-15T13:29:13.694Z,16.91
2019-05-15T13:30:19.722Z,16.91
2019-05-15T13:31:25.348Z,16.92
2019-05-15T13:32:30.251Z,16.94
2019-05-15T13:33:35.845Z,16.93
2019-05-15T13:34:40.769Z,16.92
2019-05-15T13:35:48.486Z,16.92
2019-05-15T13:36:54.109Z,16.93
2019-05-15T13:37:59.775Z,16.93
2019-05-15T13:39:06.414Z,16.93
2019-05-15T13:40:12.605Z,16.93
2019-05-15T13:41:19.026Z,16.94
2019-05-15T13:42:27.998Z,16.95
2019-05-15T13:43:32.735Z,16.97
2019-05-15T13:44:38.787Z,16.98
2019-05-15T13:45:43.741Z,17.00
2019-05-15T13:46:49.216Z,17.02
2019-05-15T13:47:54.796Z,17.03
2019-05-15T13:49:00.421Z,17.03
2019-05-15T13:50:07.867Z,17.04
2019-05-15T13:51:13.225Z,17.05
2019-05-15T13:52:18.818Z,17.08
2019-05-15T13:53:24.425Z,17.10
2019-05-15T13:54:29.830Z,17.09
2019-05-15T13:55:37.941Z,17.09
2019-05-15T13:56:42.827Z,17.08
2019-05-15T13:57:48.772Z,17.10
2019-05-15T13:58:53.902Z,17.10
2019-05-15T13:59:59.411Z,17.12
2019-05-15T14:01:05.021Z,17.13
2019-05-15T14:02:10.580Z,17.14
2019-05-15T14:03:15.676Z,17.15
2019-05-15T14:04:21.207Z,17.14
2019-05-15T14:05:29.457Z,17.16
2019-05-15T14:06:33.339Z,17.17
2019-05-15T14:07:49.014Z,17.18
2019-05-15T14:08:48.531Z,17.19
2019-05-15T14:09:53.050Z,17.18
2019-05-15T14:10:58.642Z,17.18
2019-05-15T14:12:03.883Z,17.21
2019-05-15T14:13:13.651Z,17.24
2019-05-15T14:14:19.855Z,17.27
2019-05-15T14:15:25.385Z,17.29
2019-05-15T14:16:31.026Z,17.29
2019-05-15T14:17:37.659Z,17.28
2019-05-15T14:18:42.955Z,17.29
2019-05-15T14:19:48.757Z,17.30
2019-05-15T14:20:54.437Z,17.31
2019-05-15T14:21:59.991Z,17.32
2019-05-15T14:23:05.039Z,17.31
2019-05-15T14:24:10.638Z,17.30
2019-05-15T14:25:18.109Z,17.31
2019-05-15T14:26:23.885Z,17.32
2019-05-15T14:27:29.362Z,17.33
2019-05-15T14:28:35.586Z,17.31
2019-05-15T14:29:41.008Z,17.30
2019-05-15T14:30:46.779Z,17.28
2019-05-15T14:31:51.713Z,17.27
2019-05-15T14:32:59.874Z,17.27
2019-05-15T14:34:04.079Z,17.27
2019-05-15T14:35:10.824Z,17.27